Terminal Aerodrome Forecast
Issued by NWS

Home | Current Version | Previous Version | Text Only | Print | Product List | Glossary On
Versions: 1 2 3 4 5 6 7 8 9 10 11 12 13 14 15 16 17 18 19 20 21 22 23
000
FTUS41 KPBZ 301120
TAFFKL
TAF
KFKL 301120Z 3012/0112 17006KT 3SM BR OVC003
     FM301400 19008KT P6SM OVC010
     FM301600 20010KT P6SM BKN025
     FM302000 22010G18KT P6SM VCTS BKN035CB
     FM010100 20005KT P6SM VCSH BKN100
      AMD LTD TO CLD VIS AND WIND=

USA.gov is the U.S. government's official web portal to all federal, state and local government web resources and services.